Time;durP1;ratioP1;P1;durP2;ratioP2;P2;SDS_P1;SDS_P2;PMS_P1;PMS_P2;Temp;Humidity;BMP_temperature;BMP_pressure;BME280_temperature;BME280_humidity;BME280_pressure;Samples;Min_cycle;Max_cycle;Signal;HPM_P1;HPM_P2
2022/05/09 00:02:02;;;;;;;18.60;15.85;;;11.60;99.90;;;;;;5015091;28;20060;-69
2022/05/09 00:04:29;;;;;;;22.08;17.00;;;11.60;99.90;;;;;;5013942;28;20052;-70
2022/05/09 00:06:56;;;;;;;18.92;15.18;;;11.60;99.90;;;;;;5012991;28;20053;-71
2022/05/09 00:09:23;;;;;;;;;;;11.50;99.90;;;;;;5014478;28;20107;-71
2022/05/09 00:11:50;;;;;;;16.53;14.67;;;11.50;99.90;;;;;;5014039;28;20436;-72
2022/05/09 00:14:17;;;;;;;23.70;15.85;;;11.50;99.90;;;;;;5014045;28;20556;-69
2022/05/09 00:16:44;;;;;;;19.58;15.25;;;11.50;99.90;;;;;;5013519;28;20049;-72
2022/05/09 00:19:13;;;;;;;17.08;15.18;;;11.50;99.90;;;;;;5014072;28;20061;-72
2022/05/09 00:21:41;;;;;;;23.67;18.85;;;11.40;99.90;;;;;;5013423;28;20053;-70
2022/05/09 00:24:13;;;;;;;22.20;17.25;;;11.40;99.90;;;;;;5013228;28;20633;-70
2022/05/09 00:26:46;;;;;;;18.35;14.77;;;11.30;99.90;;;;;;4999886;28;20862;-72
2022/05/09 00:29:14;;;;;;;19.13;16.67;;;11.30;99.90;;;;;;4992776;28;20908;-71
2022/05/09 00:31:43;;;;;;;23.63;19.33;;;11.20;99.90;;;;;;4994764;28;20224;-71
2022/05/09 00:34:12;;;;;;;20.80;18.48;;;11.20;99.90;;;;;;4994150;28;20065;-72
2022/05/09 00:36:39;;;;;;;20.33;17.08;;;11.10;99.90;;;;;;5008475;28;20131;-72
2022/05/09 00:39:06;;;;;;;22.77;17.50;;;11.00;99.90;;;;;;5006397;28;20042;-71
2022/05/09 00:41:40;;;;;;;24.58;18.95;;;10.90;99.90;;;;;;5023033;28;20060;-70
2022/05/09 00:44:20;;;;;;;22.10;17.38;;;10.80;99.90;;;;;;5013506;28;20119;-69
2022/05/09 00:46:51;;;;;;;23.23;18.90;;;10.80;99.90;;;;;;5013596;28;20407;-71
2022/05/09 00:49:45;;;;;;;25.90;20.98;;;10.70;99.90;;;;;;5013322;28;20045;-71
2022/05/09 00:52:43;;;;;;;31.35;20.80;;;10.60;99.90;;;;;;5016633;28;20408;-69
2022/05/09 00:55:25;;;;;;;27.25;19.10;;;10.60;99.90;;;;;;5017212;28;20091;-70
2022/05/09 00:58:15;;;;;;;28.30;21.38;;;10.60;99.90;;;;;;5016748;28;20148;-70
2022/05/09 01:00:45;;;;;;;27.75;22.08;;;10.60;99.90;;;;;;5015809;28;20049;-69
2022/05/09 01:03:19;;;;;;;26.30;20.25;;;10.50;99.90;;;;;;5017431;28;20067;-71
2022/05/09 01:05:50;;;;;;;20.23;17.83;;;10.50;99.90;;;;;;5016618;28;20057;-71
2022/05/09 01:08:19;;;;;;;23.73;19.90;;;10.50;99.90;;;;;;5016723;28;20080;-70
2022/05/09 01:10:47;;;;;;;26.70;22.67;;;10.50;99.90;;;;;;5017408;28;20069;-72
2022/05/09 01:13:16;;;;;;;30.20;25.00;;;10.60;99.90;;;;;;5016700;28;20042;-70
2022/05/09 01:15:46;;;;;;;31.58;25.52;;;10.50;99.90;;;;;;5016957;28;20045;-70
2022/05/09 01:18:14;;;;;;;28.52;24.27;;;10.50;99.90;;;;;;5015860;28;20049;-70
2022/05/09 01:20:42;;;;;;;32.97;24.10;;;10.50;99.90;;;;;;5016653;28;20048;-71
2022/05/09 01:23:10;;;;;;;30.48;23.85;;;10.50;99.90;;;;;;5015513;28;20743;-70
2022/05/09 01:25:38;;;;;;;23.20;20.58;;;10.50;99.90;;;;;;5016635;28;20042;-71
2022/05/09 01:28:05;;;;;;;27.77;23.00;;;10.50;99.90;;;;;;5006948;28;20631;-72
2022/05/09 01:30:44;;;;;;;29.50;25.48;;;10.50;99.90;;;;;;4997019;28;20432;-70
2022/05/09 01:33:17;;;;;;;27.65;23.23;;;10.50;99.90;;;;;;4997289;28;20057;-70
2022/05/09 01:35:54;;;;;;;30.55;23.00;;;10.40;99.90;;;;;;5003394;28;20053;-69
2022/05/09 01:38:27;;;;;;;26.00;21.67;;;10.40;99.90;;;;;;5016005;28;20038;-70
2022/05/09 01:40:53;;;;;;;24.50;20.85;;;10.40;99.90;;;;;;5014838;28;20073;-69
2022/05/09 01:43:29;;;;;;;;;;;10.40;99.90;;;;;;5017059;28;20696;-72
2022/05/09 01:45:56;;;;;;;24.95;20.23;;;10.30;99.90;;;;;;5016732;28;20289;-71
2022/05/09 01:51:08;;;;;;;26.63;21.90;;;10.30;99.90;;;;;;5015368;28;20029;-69
2022/05/09 01:53:35;;;;;;;;;;;10.30;99.90;;;;;;5015915;28;20440;-72
2022/05/09 01:56:02;;;;;;;26.25;20.70;;;10.30;99.90;;;;;;5016582;28;19931;-70
2022/05/09 01:58:28;;;;;;;;;;;10.30;99.90;;;;;;5015628;28;20407;-69
2022/05/09 02:00:55;;;;;;;33.35;22.90;;;10.30;99.90;;;;;;5016657;28;19925;-70
2022/05/09 02:03:22;;;;;;;30.42;24.40;;;10.20;99.90;;;;;;5015975;28;20046;-70
2022/05/09 02:05:49;;;;;;;;;;;10.20;99.90;;;;;;5016669;28;20073;-70
2022/05/09 02:08:15;;;;;;;26.80;21.35;;;10.20;99.90;;;;;;5015240;28;19929;-70
2022/05/09 02:10:42;;;;;;;33.75;26.70;;;10.20;99.90;;;;;;5016706;28;20453;-69
2022/05/09 02:13:09;;;;;;;;;;;10.10;99.90;;;;;;5016065;28;20744;-69
2022/05/09 02:15:36;;;;;;;30.15;22.63;;;10.00;99.90;;;;;;5015918;28;19925;-71
2022/05/09 02:18:02;;;;;;;31.70;25.70;;;10.00;99.90;;;;;;5015246;28;20033;-69
2022/05/09 02:20:29;;;;;;;33.50;26.65;;;9.90;99.90;;;;;;5015348;28;20046;-71
2022/05/09 02:22:56;;;;;;;;;;;9.90;99.90;;;;;;5015413;28;20041;-70
2022/05/09 02:25:33;;;;;;;35.13;26.75;;;9.80;99.90;;;;;;5015351;28;19975;-70
2022/05/09 02:28:02;;;;;;;35.35;26.33;;;9.80;99.90;;;;;;5002884;28;20539;-70
2022/05/09 02:30:29;;;;;;;42.40;27.10;;;9.80;99.90;;;;;;4995312;28;20045;-70
2022/05/09 02:32:56;;;;;;;;;;;9.70;99.90;;;;;;5011374;28;20124;-70
2022/05/09 02:35:23;;;;;;;37.85;27.75;;;9.70;99.90;;;;;;5014902;28;20266;-71
2022/05/09 02:37:53;;;;;;;33.95;27.30;;;9.70;99.90;;;;;;5014729;28;20507;-69
2022/05/09 02:40:23;;;;;;;35.90;27.45;;;9.60;99.90;;;;;;5015852;28;20048;-70
2022/05/09 02:42:52;;;;;;;39.33;30.10;;;9.60;99.90;;;;;;5014977;28;20046;-69
2022/05/09 02:45:20;;;;;;;39.53;30.58;;;9.60;99.90;;;;;;5014555;28;20126;-70
2022/05/09 02:47:47;;;;;;;49.10;33.92;;;9.60;99.90;;;;;;5014837;28;20053;-71
2022/05/09 02:50:15;;;;;;;38.85;29.20;;;9.70;99.90;;;;;;5015162;28;20455;-69
2022/05/09 02:52:43;;;;;;;42.17;31.20;;;9.70;99.90;;;;;;5015216;28;20041;-70
2022/05/09 02:55:12;;;;;;;35.70;28.60;;;9.70;99.90;;;;;;5015455;28;20049;-69
2022/05/09 02:57:39;;;;;;;37.13;27.92;;;9.70;99.90;;;;;;5014527;28;20049;-71
2022/05/09 03:00:13;;;;;;;35.10;26.80;;;9.80;99.90;;;;;;5014707;28;20041;-70
2022/05/09 03:05:35;;;;;;;32.03;25.33;;;9.90;99.90;;;;;;5014803;28;20049;-71
2022/05/09 03:08:02;;;;;;;28.92;24.30;;;10.00;99.90;;;;;;5014222;28;20068;-70
2022/05/09 03:10:31;;;;;;;35.58;25.13;;;10.00;99.90;;;;;;5013031;28;20057;-69
2022/05/09 03:12:59;;;;;;;33.45;25.42;;;10.10;99.90;;;;;;5014748;28;20147;-70
2022/05/09 03:15:27;;;;;;;32.20;25.05;;;10.10;99.90;;;;;;5014752;28;20079;-71
2022/05/09 03:17:54;;;;;;;30.80;24.42;;;10.10;99.90;;;;;;5013568;28;20393;-69
2022/05/09 03:20:22;;;;;;;31.20;25.10;;;10.20;99.90;;;;;;5014971;28;20056;-70
2022/05/09 03:22:49;;;;;;;28.70;24.10;;;10.20;99.90;;;;;;5014860;28;20211;-70
2022/05/09 03:25:17;;;;;;;27.95;22.63;;;10.30;99.90;;;;;;5014624;28;20057;-69
2022/05/09 03:27:44;;;;;;;28.17;22.63;;;10.30;99.90;;;;;;5010504;28;20045;-69
2022/05/09 03:30:13;;;;;;;27.48;22.00;;;10.30;99.90;;;;;;4993599;28;20037;-69
2022/05/09 03:32:40;;;;;;;35.70;27.27;;;10.40;99.90;;;;;;4994126;28;20052;-69
2022/05/09 03:35:08;;;;;;;;;;;10.40;99.90;;;;;;4997976;28;20988;-69
2022/05/09 03:37:36;;;;;;;41.70;30.42;;;10.50;99.90;;;;;;5013804;28;19931;-69
2022/05/09 03:40:05;;;;;;;35.00;27.17;;;10.50;99.90;;;;;;5014182;28;20068;-70
2022/05/09 03:42:32;;;;;;;38.08;28.33;;;10.50;99.90;;;;;;5014920;28;20072;-71
2022/05/09 03:44:59;;;;;;;;;;;10.50;99.90;;;;;;5014414;28;20057;-69
2022/05/09 03:47:26;;;;;;;37.45;27.65;;;10.60;99.90;;;;;;5013719;28;19933;-72
2022/05/09 03:49:55;;;;;;;;;;;10.60;99.90;;;;;;5014978;28;20045;-70
2022/05/09 03:52:23;;;;;;;39.83;31.35;;;10.70;99.90;;;;;;5013376;28;19924;-69
2022/05/09 03:54:49;;;;;;;41.03;28.65;;;10.70;99.90;;;;;;5014406;28;20045;-68
2022/05/09 03:57:18;;;;;;;31.40;25.45;;;10.70;99.90;;;;;;5013547;28;20041;-69
2022/05/09 03:59:46;;;;;;;28.40;23.85;;;10.70;99.90;;;;;;5014849;28;20037;-71
2022/05/09 04:02:12;;;;;;;;;;;10.70;99.90;;;;;;5014496;28;20045;-70
2022/05/09 04:04:39;;;;;;;32.78;25.55;;;10.70;99.90;;;;;;5014963;28;19986;-69
2022/05/09 04:07:06;;;;;;;35.10;27.40;;;10.70;99.90;;;;;;5011989;28;20117;-71
2022/05/09 04:09:33;;;;;;;33.15;25.88;;;10.70;99.90;;;;;;5013863;28;20041;-69
2022/05/09 04:11:59;;;;;;;;;;;10.70;99.90;;;;;;5014398;28;20045;-69
2022/05/09 04:17:14;;;;;;;25.48;22.33;;;10.70;99.90;;;;;;5012414;28;20072;-70
2022/05/09 04:19:41;;;;;;;25.30;21.80;;;10.70;99.90;;;;;;5013544;28;20109;-69
2022/05/09 04:22:08;;;;;;;24.38;21.60;;;10.80;99.90;;;;;;5014409;28;20512;-70
2022/05/09 04:24:34;;;;;;;;;;;10.80;99.90;;;;;;5014692;28;20553;-70
2022/05/09 04:27:01;;;;;;;25.45;20.80;;;10.80;99.90;;;;;;5015831;28;19960;-69
2022/05/09 04:29:31;;;;;;;25.42;21.38;;;10.80;99.90;;;;;;5013805;28;20049;-54
2022/05/09 04:31:58;;;;;;;;;;;10.80;99.90;;;;;;4996810;28;20131;-57
2022/05/09 04:34:25;;;;;;;30.15;23.80;;;10.90;99.90;;;;;;4998118;28;19926;-57
2022/05/09 04:36:51;;;;;;;;;;;10.90;99.90;;;;;;5014073;28;20037;-56
2022/05/09 04:39:20;;;;;;;32.38;26.27;;;10.90;99.90;;;;;;5017288;28;19925;-57
2022/05/09 04:41:48;;;;;;;33.30;25.98;;;11.00;99.90;;;;;;5016912;28;20522;-55
2022/05/09 04:44:20;;;;;;;31.13;23.85;;;11.00;99.90;;;;;;5016206;28;20049;-57
2022/05/09 04:46:47;;;;;;;29.42;24.73;;;11.00;99.90;;;;;;5014994;28;20056;-56
2022/05/09 04:49:13;;;;;;;;;;;11.00;99.90;;;;;;5017861;28;20129;-56
2022/05/09 04:51:40;;;;;;;31.73;25.02;;;11.10;99.90;;;;;;5016808;28;19975;-57
2022/05/09 04:54:07;;;;;;;;;;;11.10;99.90;;;;;;5017696;28;20049;-56
2022/05/09 04:56:34;;;;;;;30.45;25.15;;;11.10;99.90;;;;;;5017462;28;19925;-57
2022/05/09 04:59:04;;;;;;;34.20;25.23;;;11.10;99.90;;;;;;5014332;28;20049;-56
2022/05/09 05:01:31;;;;;;;29.17;24.23;;;11.20;99.90;;;;;;5016139;28;20526;-57
2022/05/09 05:03:58;;;;;;;30.25;23.90;;;11.20;99.90;;;;;;5017005;28;20845;-56
2022/05/09 05:06:24;;;;;;;;;;;11.20;99.90;;;;;;5017760;28;20045;-56
2022/05/09 05:08:51;;;;;;;40.63;30.83;;;11.20;99.90;;;;;;5015240;28;19925;-57
2022/05/09 05:11:18;;;;;;;;;;;11.30;99.90;;;;;;5018001;28;20680;-57
2022/05/09 05:13:45;;;;;;;41.30;29.95;;;11.30;99.90;;;;;;5016987;28;19987;-58
2022/05/09 05:16:11;;;;;;;44.38;32.67;;;11.30;99.90;;;;;;5016147;28;20045;-56
2022/05/09 05:18:39;;;;;;;44.50;33.13;;;11.40;99.90;;;;;;5014980;28;20049;-57
2022/05/09 05:21:13;;;;;;;40.90;31.00;;;11.40;99.90;;;;;;5016238;28;20038;-56
2022/05/09 05:23:40;;;;;;;34.25;27.23;;;11.40;99.90;;;;;;5016750;28;20054;-54
2022/05/09 05:26:07;;;;;;;;;;;11.40;99.90;;;;;;5017038;28;20555;-55
2022/05/09 05:28:34;;;;;;;42.60;31.85;;;11.50;99.90;;;;;;5015708;28;19925;-54
2022/05/09 05:31:16;;;;;;;35.10;28.63;;;11.50;99.90;;;;;;5001130;28;20597;-54
2022/05/09 05:33:44;;;;;;;37.42;29.63;;;11.50;99.90;;;;;;5013503;28;20037;-53
2022/05/09 05:36:12;;;;;;;41.47;31.08;;;11.50;99.90;;;;;;5015531;28;20041;-54
2022/05/09 05:38:43;;;;;;;39.55;30.63;;;11.50;99.90;;;;;;5014900;28;20155;-56
2022/05/09 05:41:10;;;;;;;39.72;28.85;;;11.60;99.90;;;;;;5015821;28;20087;-57
2022/05/09 05:43:36;;;;;;;40.13;31.00;;;11.60;99.90;;;;;;5015579;28;20111;-57
2022/05/09 05:46:03;;;;;;;42.90;31.95;;;11.60;99.90;;;;;;5015825;28;20124;-55
2022/05/09 05:48:30;;;;;;;37.92;29.85;;;11.60;99.90;;;;;;5014040;28;20056;-52
2022/05/09 05:50:57;;;;;;;;;;;11.70;99.90;;;;;;5016796;28;20041;-54
2022/05/09 05:53:24;;;;;;;46.65;31.05;;;11.70;99.90;;;;;;5015230;28;19925;-53
2022/05/09 05:55:50;;;;;;;;;;;11.80;99.90;;;;;;5017350;28;20593;-52
2022/05/09 05:58:17;;;;;;;42.75;32.33;;;11.80;99.90;;;;;;5015378;28;19991;-53
2022/05/09 06:00:44;;;;;;;;;;;11.90;99.90;;;;;;5015814;28;20465;-52
2022/05/09 06:03:11;;;;;;;39.97;31.00;;;11.90;99.90;;;;;;5015109;28;20018;-52
2022/05/09 06:05:37;;;;;;;;;;;12.00;99.90;;;;;;5015645;28;20519;-53
2022/05/09 06:08:04;;;;;;;41.58;31.23;;;12.10;99.90;;;;;;5012910;28;19929;-53
2022/05/09 06:10:31;;;;;;;46.45;33.85;;;12.20;99.90;;;;;;5015009;28;20052;-52
2022/05/09 06:13:01;;;;;;;;;;;12.30;99.90;;;;;;5016306;28;20103;-51
2022/05/09 06:15:29;;;;;;;42.65;32.70;;;12.40;99.90;;;;;;5014892;28;19932;-54
2022/05/09 06:17:57;;;;;;;46.78;36.20;;;12.60;99.90;;;;;;5014510;28;20105;-55
2022/05/09 06:20:26;;;;;;;40.88;32.75;;;12.70;99.90;;;;;;5015685;28;20116;-55
2022/05/09 06:22:58;;;;;;;37.45;31.40;;;12.80;99.90;;;;;;5014710;28;20041;-56
2022/05/09 06:25:27;;;;;;;37.67;30.45;;;12.90;99.90;;;;;;5015096;28;20057;-55
2022/05/09 06:27:54;;;;;;;39.75;31.65;;;13.00;99.90;;;;;;5014597;28;20068;-54
2022/05/09 06:30:22;;;;;;;36.30;29.60;;;13.10;99.90;;;;;;5013985;28;20069;-58
2022/05/09 06:32:50;;;;;;;34.22;27.25;;;13.20;99.90;;;;;;4993963;28;20056;-55
2022/05/09 06:35:20;;;;;;;30.38;24.52;;;13.20;99.90;;;;;;4998959;28;20041;-55
2022/05/09 06:37:49;;;;;;;30.98;23.33;;;13.30;99.90;;;;;;5012849;28;20514;-52
2022/05/09 06:40:16;;;;;;;34.40;27.08;;;13.40;99.90;;;;;;5013304;28;20073;-49
2022/05/09 06:42:44;;;;;;;34.05;28.15;;;13.50;99.90;;;;;;5015479;28;20041;-49
2022/05/09 06:45:11;;;;;;;28.50;23.00;;;13.70;99.90;;;;;;4994968;28;20420;-52
2022/05/09 06:47:50;;;;;;;29.55;23.05;;;13.70;99.90;;;;;;4994464;28;20045;-51
2022/05/09 06:50:27;;;;;;;26.38;21.20;;;13.70;99.90;;;;;;4994693;28;20046;-49
2022/05/09 06:52:57;;;;;;;28.98;21.83;;;13.70;99.90;;;;;;4994889;28;20129;-53
2022/05/09 06:55:42;;;;;;;26.25;20.23;;;13.80;99.90;;;;;;4994639;28;20125;-53
2022/05/09 06:58:12;;;;;;;27.92;22.52;;;13.80;99.90;;;;;;4994464;28;20037;-51
2022/05/09 07:00:39;;;;;;;24.90;19.73;;;13.90;99.90;;;;;;4994219;28;20531;-52
2022/05/09 07:03:05;;;;;;;;;;;14.00;99.90;;;;;;4996001;28;20443;-54
2022/05/09 07:05:32;;;;;;;29.27;20.25;;;14.20;99.90;;;;;;5006989;28;20014;-52
2022/05/09 07:07:59;;;;;;;;;;;14.20;99.90;;;;;;5013899;28;20446;-55
2022/05/09 07:10:28;;;;;;;21.48;18.30;;;14.30;99.90;;;;;;5013551;28;19924;-56
2022/05/09 07:12:56;;;;;;;25.55;20.20;;;14.30;99.90;;;;;;5013823;28;20075;-56
2022/05/09 07:15:28;;;;;;;27.13;19.75;;;14.40;99.90;;;;;;5013508;28;20061;-54
2022/05/09 07:18:01;;;;;;;21.33;17.90;;;14.40;99.90;;;;;;4993255;28;20050;-59
2022/05/09 07:20:30;;;;;;;28.58;22.35;;;14.50;99.90;;;;;;4955592;28;20225;-58
2022/05/09 07:23:04;;;;;;;34.38;21.92;;;14.70;99.90;;;;;;4933634;28;20774;-55
2022/05/09 07:25:32;;;;;;;21.17;18.88;;;14.90;99.90;;;;;;4953617;28;20113;-53
2022/05/09 07:27:58;;;;;;;18.25;16.15;;;15.00;99.90;;;;;;4965738;28;20047;-52
2022/05/09 07:30:25;;;;;;;19.63;14.57;;;15.10;99.90;;;;;;4974451;28;20042;-57
2022/05/09 07:32:53;;;;;;;20.73;16.30;;;15.20;99.90;;;;;;4994120;28;20061;-55
2022/05/09 07:35:20;;;;;;;21.75;17.30;;;15.30;99.90;;;;;;4973585;28;20272;-57
2022/05/09 07:37:47;;;;;;;24.75;15.05;;;15.30;99.90;;;;;;4960975;28;20120;-55
2022/05/09 07:40:17;;;;;;;40.65;17.00;;;15.40;99.90;;;;;;4976093;28;20045;-61
2022/05/09 07:42:46;;;;;;;35.70;19.40;;;15.40;99.90;;;;;;4976556;28;20073;-60
2022/05/09 07:45:16;;;;;;;24.98;16.20;;;15.40;99.90;;;;;;4957443;28;20051;-56
2022/05/09 07:47:43;;;;;;;28.90;16.48;;;15.30;99.90;;;;;;4955629;28;20501;-53
2022/05/09 07:50:12;;;;;;;40.55;19.42;;;15.30;99.90;;;;;;4956522;28;20148;-54
2022/05/09 07:52:42;;;;;;;19.95;11.85;;;15.40;99.90;;;;;;4956813;28;20851;-53
2022/05/09 07:55:15;;;;;;;39.10;14.82;;;15.60;99.90;;;;;;4957011;28;20042;-54
2022/05/09 07:57:42;;;;;;;37.72;17.83;;;15.80;99.90;;;;;;4955973;28;20603;-55
2022/05/09 08:00:10;;;;;;;18.70;14.45;;;16.10;99.90;;;;;;4955802;28;20050;-57
2022/05/09 08:02:40;;;;;;;16.88;13.45;;;16.60;99.90;;;;;;4956885;28;20038;-58
2022/05/09 08:05:10;;;;;;;16.63;14.23;;;17.30;99.90;;;;;;4964564;28;20093;-55
2022/05/09 08:07:40;;;;;;;14.20;12.32;;;17.70;99.90;;;;;;4971730;28;20046;-57
2022/05/09 08:10:11;;;;;;;14.38;12.90;;;18.10;99.90;;;;;;4991924;28;20456;-55
2022/05/09 08:12:38;;;;;;;14.23;12.05;;;18.40;99.90;;;;;;4994722;28;20050;-53
2022/05/09 08:15:08;;;;;;;9.57;8.68;;;18.40;99.90;;;;;;4995289;28;20085;-55
2022/05/09 08:17:37;;;;;;;12.45;11.00;;;18.10;99.90;;;;;;4994535;28;20050;-55
2022/05/09 08:20:05;;;;;;;11.70;10.45;;;17.90;99.90;;;;;;4995395;28;20033;-53
2022/05/09 08:22:33;;;;;;;11.45;10.23;;;17.60;99.90;;;;;;4995656;28;20054;-54
2022/05/09 08:25:05;;;;;;;15.52;10.77;;;17.20;99.90;;;;;;4995822;28;20045;-52
2022/05/09 08:27:33;;;;;;;10.35;9.25;;;17.00;99.90;;;;;;5009308;28;20691;-52
2022/05/09 08:30:00;;;;;;;14.90;11.02;;;17.00;99.90;;;;;;4992852;28;20073;-55
2022/05/09 08:32:28;;;;;;;36.00;13.68;;;17.00;99.90;;;;;;4994132;28;20049;-55
2022/05/09 08:34:56;;;;;;;11.88;9.27;;;16.80;99.90;;;;;;4995360;28;20100;-54
2022/05/09 08:37:24;;;;;;;14.05;9.60;;;16.60;99.90;;;;;;4993601;28;20100;-53
2022/05/09 08:39:51;;;;;;;10.35;8.55;;;16.50;99.90;;;;;;4994186;28;20046;-53
2022/05/09 08:42:33;;;;;;;8.65;7.75;;;16.40;99.90;;;;;;4996130;28;20052;-52
2022/05/09 08:45:16;;;;;;;11.15;9.98;;;16.30;99.90;;;;;;4976502;28;20042;-53
2022/05/09 08:48:18;;;;;;;30.30;13.77;;;16.40;99.90;;;;;;4988018;28;20033;-51
2022/05/09 08:51:09;;;;;;;19.02;11.77;;;16.40;99.90;;;;;;4994963;28;20057;-55
2022/05/09 08:53:40;;;;;;;17.83;12.38;;;16.60;99.90;;;;;;4995759;28;20540;-53
2022/05/09 08:56:18;;;;;;;12.27;10.98;;;16.70;99.90;;;;;;4995282;28;20097;-51
2022/05/09 08:58:56;;;;;;;13.07;11.55;;;17.10;99.90;;;;;;4977238;28;20050;-55
2022/05/09 09:01:32;;;;;;;15.57;10.65;;;17.40;99.90;;;;;;4989731;28;20046;-53
2022/05/09 09:04:13;;;;;;;15.90;11.40;;;17.60;99.90;;;;;;4995350;28;20682;-57
2022/05/09 09:06:56;;;;;;;22.80;11.77;;;17.90;99.90;;;;;;4974275;28;20531;-55
2022/05/09 09:09:38;;;;;;;11.13;9.43;;;18.10;99.90;;;;;;4974754;28;20042;-58
2022/05/09 09:12:16;;;;;;;13.15;10.32;;;18.20;99.90;;;;;;4992440;28;20125;-53
2022/05/09 09:14:53;;;;;;;16.98;11.77;;;18.40;99.90;;;;;;4999038;28;20037;-52
2022/05/09 09:17:33;;;;;;;13.75;10.85;;;18.30;99.90;;;;;;4998694;28;20747;-57
2022/05/09 09:20:24;;;;;;;12.25;10.48;;;18.20;99.90;;;;;;4998740;28;20100;-54
2022/05/09 09:23:00;;;;;;;14.68;11.93;;;18.10;99.90;;;;;;4999992;28;20054;-54
2022/05/09 09:25:37;;;;;;;9.80;8.80;;;18.00;99.90;;;;;;4991974;28;20042;-58
2022/05/09 09:28:25;;;;;;;11.38;10.18;;;18.00;99.90;;;;;;4977339;28;20046;-57
2022/05/09 09:30:53;;;;;;;14.05;9.93;;;18.00;99.90;;;;;;4988987;28;20615;-55
2022/05/09 09:33:20;;;;;;;18.50;10.68;;;18.00;99.90;;;;;;4995242;28;20042;-58
2022/05/09 09:36:12;;;;;;;13.48;10.80;;;17.90;99.90;;;;;;4993286;28;20053;-59
2022/05/09 09:38:54;;;;;;;17.13;10.82;;;17.80;99.90;;;;;;4997456;28;20053;-48
2022/05/09 09:41:35;;;;;;;11.45;10.30;;;17.70;99.90;;;;;;4984725;28;20084;-60
2022/05/09 09:44:12;;;;;;;11.43;10.13;;;17.50;99.90;;;;;;4987704;28;20050;-58
2022/05/09 09:47:19;;;;;;;11.98;10.60;;;17.50;99.90;;;;;;4981561;28;20064;-60
2022/05/09 09:50:19;;;;;;;12.25;9.75;;;17.50;99.90;;;;;;5013571;28;20528;-57
2022/05/09 09:52:55;;;;;;;15.43;12.27;;;17.50;99.90;;;;;;4997306;28;20853;-52
2022/05/09 09:55:32;;;;;;;15.30;12.73;;;17.40;99.90;;;;;;4996382;28;20042;-58
2022/05/09 09:58:26;;;;;;;12.75;10.32;;;17.40;99.90;;;;;;4996381;28;20129;-55
2022/05/09 10:01:05;;;;;;;12.70;10.07;;;17.40;99.90;;;;;;4997091;28;20479;-57
2022/05/09 10:03:35;;;;;;;12.80;10.85;;;17.40;99.90;;;;;;4997659;28;20045;-60
2022/05/09 10:06:02;;;;;;;11.82;10.63;;;17.50;99.90;;;;;;4995927;28;20042;-55
2022/05/09 10:08:36;;;;;;;13.10;10.25;;;17.70;99.90;;;;;;4997761;28;20057;-57
2022/05/09 10:11:09;;;;;;;11.20;10.02;;;17.80;99.90;;;;;;4996826;28;20045;-58
2022/05/09 10:13:44;;;;;;;14.23;10.88;;;18.10;99.90;;;;;;4997988;28;20092;-59
2022/05/09 10:16:23;;;;;;;10.93;9.85;;;18.40;99.90;;;;;;4996321;28;20034;-56
2022/05/09 10:18:51;;;;;;;11.75;10.27;;;18.80;99.90;;;;;;4995799;28;20042;-57
2022/05/09 10:24:47;;;;;;;11.88;9.23;;;19.40;99.90;;;;;;4998189;28;20788;-56
2022/05/09 10:27:25;;;;;;;10.18;8.48;;;19.60;99.90;;;;;;4995024;28;20129;-58
2022/05/09 10:30:02;;;;;;;10.07;8.38;;;19.80;99.90;;;;;;4997547;28;20069;-55
2022/05/09 10:33:03;;;;;;;13.23;9.68;;;19.80;99.90;;;;;;4999900;28;20044;-56
2022/05/09 10:35:37;;;;;;;11.23;9.60;;;20.00;99.90;;;;;;4991573;28;20056;-58
2022/05/09 10:38:14;;;;;;;10.95;9.80;;;20.10;99.90;;;;;;4996547;28;20045;-58
2022/05/09 10:40:45;;;;;;;12.15;10.95;;;20.40;99.90;;;;;;4996844;28;20049;-55
2022/05/09 10:43:30;;;;;;;13.10;11.80;;;20.70;99.90;;;;;;4997599;28;20042;-51
2022/05/09 10:46:01;;;;;;;13.68;10.90;;;20.90;99.90;;;;;;4997771;28;20437;-53
2022/05/09 10:48:44;;;;;;;13.13;10.07;;;21.00;99.90;;;;;;4980333;28;20042;-54
2022/05/09 10:51:18;;;;;;;13.02;11.75;;;21.20;99.90;;;;;;4995787;28;20768;-56
2022/05/09 10:54:21;;;;;;;10.38;9.30;;;21.40;99.90;;;;;;4997367;28;20143;-54
2022/05/09 10:57:21;;;;;;;9.23;8.32;;;21.40;99.90;;;;;;4996473;28;20045;-56
2022/05/09 11:00:19;;;;;;;12.57;11.27;;;21.40;99.90;;;;;;4996028;28;20054;-55
2022/05/09 11:03:11;;;;;;;12.15;10.85;;;21.40;99.90;;;;;;4994573;28;20042;-55
2022/05/09 11:05:48;;;;;;;11.55;10.40;;;21.20;99.90;;;;;;4994719;28;20052;-54
2022/05/09 11:08:35;;;;;;;9.73;8.73;;;21.00;99.90;;;;;;4994390;28;20081;-56
2022/05/09 11:11:05;;;;;;;10.23;9.23;;;20.90;99.90;;;;;;4994732;28;20049;-55
2022/05/09 11:13:49;;;;;;;11.82;9.70;;;21.00;99.90;;;;;;4996589;28;20053;-56
2022/05/09 11:16:45;;;;;;;9.80;8.35;;;21.30;99.90;;;;;;4997129;28;20129;-56
2022/05/09 11:19:40;;;;;;;12.55;11.20;;;21.60;99.90;;;;;;4967383;28;20088;-54
2022/05/09 11:22:26;;;;;;;13.57;10.73;;;21.90;96.40;;;;;;4998679;28;20125;-55
2022/05/09 11:25:08;;;;;;;11.20;8.27;;;22.10;94.60;;;;;;4979248;28;20112;-55
2022/05/09 11:28:01;;;;;;;12.20;9.18;;;22.30;94.90;;;;;;4994162;28;20037;-56
2022/05/09 11:30:37;;;;;;;10.43;9.18;;;22.50;91.70;;;;;;4995179;28;20065;-53
2022/05/09 11:33:13;;;;;;;12.48;10.63;;;22.50;91.20;;;;;;4996887;28;20049;-52
2022/05/09 11:35:41;;;;;;;16.33;10.47;;;22.60;90.90;;;;;;4993301;28;20761;-49
2022/05/09 11:38:26;;;;;;;10.32;9.20;;;22.30;93.00;;;;;;4994539;28;20050;-52
2022/05/09 11:41:35;;;;;;;18.60;10.15;;;22.10;94.30;;;;;;4973972;28;20487;-52
2022/05/09 11:44:15;;;;;;;9.93;8.10;;;21.90;93.10;;;;;;4994692;28;20096;-51
2022/05/09 11:46:43;;;;;;;10.23;8.60;;;21.60;92.90;;;;;;4993206;28;20057;-52
2022/05/09 11:49:40;;;;;;;10.35;8.68;;;21.40;92.50;;;;;;4994049;28;20045;-51
2022/05/09 11:52:25;;;;;;;14.93;10.45;;;21.30;93.00;;;;;;4996521;28;20046;-55
2022/05/09 11:54:54;;;;;;;10.30;9.18;;;21.30;95.90;;;;;;4995233;28;20056;-57
2022/05/09 11:57:26;;;;;;;12.02;10.68;;;21.20;96.40;;;;;;4995671;28;20810;-59
2022/05/09 11:59:55;;;;;;;12.68;9.75;;;21.10;95.80;;;;;;4987325;28;20045;-59
2022/05/09 12:02:44;;;;;;;11.02;8.40;;;21.00;96.60;;;;;;5010834;28;20050;-56
2022/05/09 12:05:27;;;;;;;9.68;8.68;;;20.90;97.00;;;;;;4987635;28;20568;-50
2022/05/09 12:07:56;;;;;;;9.55;8.55;;;20.90;96.30;;;;;;4990589;28;20464;-56
2022/05/09 12:10:30;;;;;;;13.23;8.35;;;20.90;95.00;;;;;;4977144;28;20145;-53
2022/05/09 12:13:09;;;;;;;10.35;9.20;;;20.90;97.60;;;;;;4975162;28;20062;-53
2022/05/09 12:15:49;;;;;;;10.70;9.60;;;21.10;99.20;;;;;;4979222;28;20034;-53
2022/05/09 12:18:29;;;;;;;11.95;9.70;;;21.40;95.70;;;;;;4974230;28;20046;-48
2022/05/09 12:21:14;;;;;;;11.52;9.65;;;21.50;95.60;;;;;;4990041;28;20520;-48
2022/05/09 12:23:41;;;;;;;;;;;21.50;93.20;;;;;;4976990;28;20046;-48
2022/05/09 12:26:25;;;;;;;13.45;8.65;;;21.50;92.20;;;;;;4976455;28;19926;-48
2022/05/09 12:29:11;;;;;;;14.02;7.90;;;21.60;93.00;;;;;;4974381;28;20547;-47
2022/05/09 12:31:49;;;;;;;10.23;8.50;;;21.80;92.50;;;;;;4993745;28;20130;-51
2022/05/09 12:34:21;;;;;;;9.15;7.80;;;22.00;94.00;;;;;;4995386;28;20171;-50
2022/05/09 12:36:50;;;;;;;6.18;5.65;;;22.00;93.90;;;;;;4993609;28;20583;-51
2022/05/09 12:39:18;;;;;;;11.13;9.43;;;22.00;94.10;;;;;;4994717;28;20052;-49
2022/05/09 12:41:53;;;;;;;10.70;7.40;;;22.00;93.10;;;;;;4993905;28;20713;-47
2022/05/09 12:44:25;;;;;;;7.68;6.97;;;22.00;93.30;;;;;;4995742;28;20096;-50
2022/05/09 12:46:56;;;;;;;9.35;8.45;;;22.00;92.50;;;;;;4997982;28;20116;-47
2022/05/09 12:49:32;;;;;;;7.13;6.43;;;22.10;90.70;;;;;;4998627;28;20198;-51
2022/05/09 12:51:59;;;;;;;6.53;5.82;;;22.10;90.20;;;;;;4998920;28;20042;-50
2022/05/09 12:54:28;;;;;;;6.55;5.57;;;22.10;90.30;;;;;;4998672;28;20045;-50
2022/05/09 12:57:01;;;;;;;9.38;6.07;;;22.10;91.40;;;;;;4997164;28;20113;-51
2022/05/09 12:59:29;;;;;;;6.53;5.93;;;22.00;89.70;;;;;;4999658;28;20038;-55
2022/05/09 13:01:58;;;;;;;7.10;6.40;;;21.90;91.70;;;;;;4999602;28;20054;-51
2022/05/09 13:04:46;;;;;;;9.93;7.45;;;21.80;92.50;;;;;;4998951;28;20049;-49
2022/05/09 13:07:12;;;;;;;8.27;7.57;;;21.80;92.60;;;;;;4998822;28;20049;-50
2022/05/09 13:09:55;;;;;;;7.30;6.60;;;22.00;93.60;;;;;;4999262;28;20061;-49
2022/05/09 13:12:36;;;;;;;8.07;7.30;;;22.30;91.70;;;;;;4999757;28;20053;-52
2022/05/09 13:15:19;;;;;;;10.05;6.57;;;22.70;88.70;;;;;;4997536;28;20144;-52
2022/05/09 13:18:01;;;;;;;6.78;5.38;;;22.80;85.70;;;;;;4994417;28;20046;-54
2022/05/09 13:20:31;;;;;;;7.78;6.97;;;23.10;90.10;;;;;;4998751;28;20040;-53